Time;durP1;ratioP1;P1;durP2;ratioP2;P2;SDS_P1;SDS_P2;PMS_P1;PMS_P2;Temp;Humidity;BMP_temperature;BMP_pressure;BME280_temperature;BME280_humidity;BME280_pressure;Samples;Min_cycle;Max_cycle;Signal;HPM_P1;HPM_P2
2022/11/27 00:01:47;;;;;;;13.90;6.10;;;;;;;;;;5076813;28;20391;-58
2022/11/27 00:04:12;;;;;;;15.45;5.18;;;;;;;;;;5080495;28;20442;-57
2022/11/27 00:06:38;;;;;;;19.25;5.30;;;;;;;;;;5080780;28;20027;-56
2022/11/27 00:09:04;;;;;;;15.63;6.22;;;;;;;;;;5080182;28;20460;-57
2022/11/27 00:11:29;;;;;;;12.55;5.72;;;;;;;;;;5081482;28;20020;-56
2022/11/27 00:13:54;;;;;;;19.23;6.22;;;;;;;;;;5073449;28;20031;-58
2022/11/27 00:16:20;;;;;;;16.08;6.03;;;;;;;;;;5070889;28;20021;-57
2022/11/27 00:18:45;;;;;;;15.52;6.07;;;;;;;;;;5082531;28;20211;-58
2022/11/27 00:21:18;;;;;;;14.77;5.57;;;;;;;;;;5087316;28;20027;-57
2022/11/27 00:23:43;;;;;;;16.23;6.43;;;;;;;;;;5084937;28;20057;-57
2022/11/27 00:26:09;;;;;;;20.70;6.20;;;;;;;;;;5077874;28;20059;-57
2022/11/27 00:28:34;;;;;;;17.75;6.22;;;;;;;;;;5083524;28;20067;-57
2022/11/27 00:30:59;;;;;;;17.30;6.45;;;;;;;;;;5072978;28;20036;-56
2022/11/27 00:33:25;;;;;;;20.75;7.00;;;;;;;;;;5078352;28;20608;-58
2022/11/27 00:35:50;;;;;;;15.07;5.85;;;;;;;;;;5077216;28;20036;-57
2022/11/27 00:38:15;;;;;;;16.63;7.10;;;;;;;;;;5073329;28;20028;-57
2022/11/27 00:40:41;;;;;;;19.05;7.20;;;;;;;;;;5091919;28;20023;-57
2022/11/27 00:43:06;;;;;;;17.08;7.53;;;;;;;;;;5079833;28;20031;-58
2022/11/27 00:45:31;;;;;;;21.98;7.57;;;;;;;;;;5077775;28;20104;-57
2022/11/27 00:47:57;;;;;;;15.90;7.93;;;;;;;;;;5075750;28;20032;-57
2022/11/27 00:50:22;;;;;;;21.20;9.25;;;;;;;;;;5084304;28;20119;-57
2022/11/27 00:52:47;;;;;;;21.35;8.35;;;;;;;;;;5090173;28;20051;-56
2022/11/27 00:55:12;;;;;;;24.23;8.90;;;;;;;;;;5081838;28;20031;-57
2022/11/27 00:57:37;;;;;;;27.88;14.13;;;;;;;;;;5078831;28;20016;-57
2022/11/27 01:00:04;;;;;;;21.45;9.20;;;;;;;;;;5072001;28;20107;-57
2022/11/27 01:02:29;;;;;;;38.88;14.43;;;;;;;;;;5091141;28;20470;-56
2022/11/27 01:04:55;;;;;;;48.65;18.20;;;;;;;;;;5081850;28;20035;-57
2022/11/27 01:07:20;;;;;;;37.75;12.50;;;;;;;;;;5077067;28;20464;-56
2022/11/27 01:09:45;;;;;;;21.20;9.35;;;;;;;;;;5070701;28;20089;-57
2022/11/27 01:12:10;;;;;;;26.25;9.02;;;;;;;;;;5077880;28;20027;-57
2022/11/27 01:14:35;;;;;;;19.85;8.10;;;;;;;;;;5081173;28;20040;-57
2022/11/27 01:17:01;;;;;;;25.77;9.27;;;;;;;;;;5071416;28;20027;-56
2022/11/27 01:19:26;;;;;;;15.65;8.48;;;;;;;;;;5068464;28;20229;-57
2022/11/27 01:21:51;;;;;;;24.83;8.63;;;;;;;;;;5075123;28;20093;-56
2022/11/27 01:24:16;;;;;;;20.05;9.25;;;;;;;;;;5083720;28;20028;-57
2022/11/27 01:26:42;;;;;;;61.65;25.48;;;;;;;;;;5089613;28;20051;-57
2022/11/27 01:29:07;;;;;;;44.67;18.30;;;;;;;;;;5079025;28;20059;-56
2022/11/27 01:31:32;;;;;;;24.75;9.93;;;;;;;;;;5087001;28;20021;-56
2022/11/27 01:34:02;;;;;;;22.98;9.45;;;;;;;;;;5074862;28;20107;-57
2022/11/27 01:36:27;;;;;;;27.40;10.57;;;;;;;;;;5087534;28;20119;-56
2022/11/27 01:38:52;;;;;;;29.45;10.15;;;;;;;;;;5097597;28;20351;-56
2022/11/27 01:41:18;;;;;;;23.98;9.82;;;;;;;;;;5084608;28;20372;-57
2022/11/27 01:43:50;;;;;;;28.48;9.75;;;;;;;;;;5080690;28;20488;-57
2022/11/27 01:46:24;;;;;;;22.25;9.45;;;;;;;;;;5089522;28;20032;-57
2022/11/27 01:48:51;;;;;;;23.70;10.15;;;;;;;;;;5083969;28;20036;-56
2022/11/27 01:51:16;;;;;;;31.92;11.30;;;;;;;;;;5074139;28;20025;-57
2022/11/27 01:53:41;;;;;;;29.17;10.77;;;;;;;;;;5128444;27;20391;-57
2022/11/27 01:56:07;;;;;;;26.38;11.30;;;;;;;;;;5076032;28;20135;-57
2022/11/27 01:58:32;;;;;;;22.40;9.88;;;;;;;;;;5090677;28;20029;-57
2022/11/27 02:00:57;;;;;;;23.73;10.60;;;;;;;;;;5086730;28;20035;-56
2022/11/27 02:03:23;;;;;;;26.77;11.23;;;;;;;;;;5094870;28;20035;-56
2022/11/27 02:05:48;;;;;;;28.88;10.80;;;;;;;;;;5075069;28;20087;-57
2022/11/27 02:08:13;;;;;;;26.58;11.25;;;;;;;;;;5078546;28;20075;-57
2022/11/27 02:10:48;;;;;;;25.65;9.90;;;;;;;;;;5092540;28;20031;-57
2022/11/27 02:13:17;;;;;;;24.63;10.50;;;;;;;;;;5086979;28;20058;-57
2022/11/27 02:15:43;;;;;;;23.30;10.05;;;;;;;;;;5115068;27;20019;-57
2022/11/27 02:18:31;;;;;;;27.88;11.43;;;;;;;;;;5082428;28;20029;-57
2022/11/27 02:21:00;;;;;;;29.75;10.82;;;;;;;;;;5076645;27;20363;-57
2022/11/27 02:23:26;;;;;;;26.02;11.02;;;;;;;;;;5119233;27;20082;-57
2022/11/27 02:26:20;;;;;;;25.13;10.73;;;;;;;;;;5076622;28;20016;-57
2022/11/27 02:29:04;;;;;;;29.52;11.90;;;;;;;;;;5066388;28;20040;-57
2022/11/27 02:31:35;;;;;;;31.63;10.38;;;;;;;;;;5074383;28;20020;-56
2022/11/27 02:34:03;;;;;;;26.20;10.80;;;;;;;;;;5081845;28;20016;-57
2022/11/27 02:36:28;;;;;;;19.05;9.15;;;;;;;;;;5117717;27;20016;-55
2022/11/27 02:39:14;;;;;;;24.50;10.10;;;;;;;;;;5082751;28;20074;-56
2022/11/27 02:41:43;;;;;;;33.53;10.23;;;;;;;;;;5080374;28;20114;-57
2022/11/27 02:44:08;;;;;;;28.38;11.38;;;;;;;;;;5118553;27;20058;-56
2022/11/27 02:46:34;;;;;;;29.90;11.00;;;;;;;;;;5090197;27;20020;-56
2022/11/27 02:49:04;;;;;;;33.10;11.02;;;;;;;;;;5113685;27;20082;-55
2022/11/27 02:51:32;;;;;;;25.80;9.90;;;;;;;;;;5116716;27;20062;-56
2022/11/27 02:53:58;;;;;;;26.60;10.63;;;;;;;;;;5080636;28;20035;-56
2022/11/27 02:56:24;;;;;;;30.08;11.93;;;;;;;;;;5111933;27;20024;-56
2022/11/27 02:58:49;;;;;;;31.13;12.77;;;;;;;;;;5086069;28;20027;-56
2022/11/27 03:01:15;;;;;;;34.25;13.55;;;;;;;;;;5113100;27;20039;-57
2022/11/27 03:03:41;;;;;;;30.08;12.23;;;;;;;;;;5075936;28;20030;-56
2022/11/27 03:06:10;;;;;;;32.22;11.65;;;;;;;;;;5082986;28;20102;-56
2022/11/27 03:08:44;;;;;;;31.02;11.50;;;;;;;;;;5088843;28;20169;-56
2022/11/27 03:11:10;;;;;;;35.13;12.30;;;;;;;;;;5071985;28;20092;-56
2022/11/27 03:13:37;;;;;;;29.58;11.95;;;;;;;;;;5109888;27;20375;-56
2022/11/27 03:16:24;;;;;;;34.55;13.93;;;;;;;;;;5114223;27;20030;-55
2022/11/27 03:19:02;;;;;;;40.28;14.98;;;;;;;;;;5111239;27;20031;-56
2022/11/27 03:21:29;;;;;;;35.85;12.43;;;;;;;;;;5076410;28;20456;-56
2022/11/27 03:23:55;;;;;;;25.17;11.13;;;;;;;;;;5084071;28;20338;-56
2022/11/27 03:26:21;;;;;;;34.38;11.35;;;;;;;;;;5101215;27;20040;-56
2022/11/27 03:28:49;;;;;;;26.48;10.90;;;;;;;;;;5087301;28;20039;-56
2022/11/27 03:31:14;;;;;;;22.92;10.65;;;;;;;;;;5077083;28;20036;-56
2022/11/27 03:33:39;;;;;;;38.17;12.15;;;;;;;;;;5076625;28;20020;-55
2022/11/27 03:36:14;;;;;;;36.85;11.52;;;;;;;;;;5082879;28;20125;-57
2022/11/27 03:38:40;;;;;;;29.75;11.35;;;;;;;;;;5082520;28;20428;-56
2022/11/27 03:41:09;;;;;;;28.25;11.55;;;;;;;;;;5080575;28;20074;-56
2022/11/27 03:43:37;;;;;;;27.13;11.60;;;;;;;;;;5075061;28;20028;-55
2022/11/27 03:46:05;;;;;;;23.75;10.63;;;;;;;;;;5075789;28;20055;-56
2022/11/27 03:48:47;;;;;;;27.10;10.00;;;;;;;;;;5066504;28;20059;-56
2022/11/27 03:51:12;;;;;;;24.17;9.93;;;;;;;;;;5081155;28;20111;-57
2022/11/27 03:53:43;;;;;;;21.80;9.82;;;;;;;;;;5081817;28;20601;-57
2022/11/27 03:56:14;;;;;;;27.88;9.60;;;;;;;;;;5070271;28;20306;-57
2022/11/27 03:59:05;;;;;;;22.17;9.65;;;;;;;;;;5076831;28;20035;-56
2022/11/27 04:01:31;;;;;;;29.05;10.00;;;;;;;;;;5078439;28;20093;-56
2022/11/27 04:03:56;;;;;;;26.70;11.20;;;;;;;;;;5073421;28;20412;-57
2022/11/27 04:06:21;;;;;;;25.15;9.95;;;;;;;;;;5080227;28;20598;-56
2022/11/27 04:08:46;;;;;;;28.38;9.73;;;;;;;;;;5078353;28;20480;-57
2022/11/27 04:11:12;;;;;;;27.65;11.10;;;;;;;;;;5078609;28;20499;-56
2022/11/27 04:13:37;;;;;;;28.23;10.50;;;;;;;;;;5082989;28;20024;-56
2022/11/27 04:16:03;;;;;;;26.58;11.15;;;;;;;;;;5081125;28;20533;-56
2022/11/27 04:18:28;;;;;;;20.17;9.15;;;;;;;;;;5075507;28;20027;-56
2022/11/27 04:20:53;;;;;;;24.65;9.65;;;;;;;;;;5081914;28;20066;-57
2022/11/27 04:23:18;;;;;;;25.25;9.73;;;;;;;;;;5077069;28;20017;-57
2022/11/27 04:25:44;;;;;;;21.40;9.38;;;;;;;;;;5080507;28;20023;-56
2022/11/27 04:28:09;;;;;;;29.15;10.13;;;;;;;;;;5086401;28;20110;-56
2022/11/27 04:30:34;;;;;;;30.92;11.02;;;;;;;;;;5078452;28;20032;-56
2022/11/27 04:33:00;;;;;;;27.08;10.68;;;;;;;;;;5087875;28;20023;-57
2022/11/27 04:35:25;;;;;;;25.17;9.95;;;;;;;;;;5074977;28;20592;-56
2022/11/27 04:37:50;;;;;;;25.48;10.80;;;;;;;;;;5070901;28;20459;-57
2022/11/27 04:40:15;;;;;;;32.80;11.23;;;;;;;;;;5072319;28;20024;-56
2022/11/27 04:42:41;;;;;;;30.02;11.80;;;;;;;;;;5078369;28;20032;-57
2022/11/27 04:45:07;;;;;;;25.85;10.57;;;;;;;;;;5073263;28;20050;-55
2022/11/27 04:47:32;;;;;;;25.05;11.18;;;;;;;;;;5073643;28;20035;-56
2022/11/27 04:49:58;;;;;;;28.23;11.07;;;;;;;;;;5087098;28;20040;-56
2022/11/27 04:52:23;;;;;;;30.80;10.70;;;;;;;;;;5073932;28;20032;-56
2022/11/27 04:54:48;;;;;;;21.35;10.38;;;;;;;;;;5081521;28;20157;-57
2022/11/27 04:57:13;;;;;;;24.05;10.32;;;;;;;;;;5081672;28;20446;-57
2022/11/27 04:59:39;;;;;;;20.13;9.20;;;;;;;;;;5075604;28;20488;-57
2022/11/27 05:02:04;;;;;;;25.75;9.95;;;;;;;;;;5080385;28;20026;-55
2022/11/27 05:04:30;;;;;;;23.02;9.85;;;;;;;;;;5088351;28;20056;-57
2022/11/27 05:06:55;;;;;;;21.75;9.10;;;;;;;;;;5072107;28;20387;-57
2022/11/27 05:09:20;;;;;;;23.83;9.70;;;;;;;;;;5076606;28;20522;-56
2022/11/27 05:11:45;;;;;;;22.52;10.10;;;;;;;;;;5086703;28;20134;-56
2022/11/27 05:14:13;;;;;;;23.75;9.98;;;;;;;;;;5084346;28;20024;-57
2022/11/27 05:16:48;;;;;;;26.10;10.48;;;;;;;;;;5089149;28;20114;-57
2022/11/27 05:19:13;;;;;;;27.00;11.45;;;;;;;;;;5078137;28;20435;-56
2022/11/27 05:21:38;;;;;;;28.27;10.55;;;;;;;;;;5082421;28;20056;-56
2022/11/27 05:24:04;;;;;;;23.13;10.82;;;;;;;;;;5082318;28;20064;-56
2022/11/27 05:26:29;;;;;;;20.90;10.15;;;;;;;;;;5080589;28;20021;-57
2022/11/27 05:28:54;;;;;;;29.27;10.15;;;;;;;;;;5079590;28;20713;-56
2022/11/27 05:31:19;;;;;;;18.48;9.13;;;;;;;;;;5087232;28;20044;-56
2022/11/27 05:33:45;;;;;;;18.83;8.70;;;;;;;;;;5091799;28;20032;-57
2022/11/27 05:36:10;;;;;;;23.00;9.30;;;;;;;;;;5087218;28;20035;-56
2022/11/27 05:38:35;;;;;;;21.00;9.95;;;;;;;;;;5072307;28;20407;-55
2022/11/27 05:41:00;;;;;;;21.00;9.82;;;;;;;;;;5089742;28;20134;-56
2022/11/27 05:43:25;;;;;;;23.23;9.52;;;;;;;;;;5078169;28;20108;-56
2022/11/27 05:45:51;;;;;;;25.88;11.02;;;;;;;;;;5091020;28;20038;-56
2022/11/27 05:48:16;;;;;;;50.33;29.45;;;;;;;;;;5086649;28;20087;-56
2022/11/27 05:50:41;;;;;;;28.90;13.57;;;;;;;;;;5083577;28;20063;-56
2022/11/27 05:53:06;;;;;;;25.73;9.73;;;;;;;;;;5078212;28;20522;-56
2022/11/27 05:55:32;;;;;;;15.38;8.27;;;;;;;;;;5092113;28;20077;-56
2022/11/27 05:57:57;;;;;;;16.85;7.72;;;;;;;;;;5089059;28;20020;-56
2022/11/27 06:00:23;;;;;;;19.60;8.25;;;;;;;;;;5081207;28;20039;-57
2022/11/27 06:02:48;;;;;;;18.48;9.82;;;;;;;;;;5081538;28;20024;-57
2022/11/27 06:05:13;;;;;;;18.70;10.80;;;;;;;;;;5085374;28;20028;-57
2022/11/27 06:07:39;;;;;;;18.48;8.05;;;;;;;;;;5075869;28;20109;-57
2022/11/27 06:10:04;;;;;;;18.15;8.90;;;;;;;;;;5077516;28;20071;-56
2022/11/27 06:12:30;;;;;;;16.92;8.60;;;;;;;;;;5081061;28;20471;-56
2022/11/27 06:14:55;;;;;;;17.25;9.05;;;;;;;;;;5078010;28;20817;-57
2022/11/27 06:17:21;;;;;;;14.52;7.13;;;;;;;;;;5079851;28;20074;-56
2022/11/27 06:19:46;;;;;;;19.70;8.90;;;;;;;;;;5085470;28;20031;-56
2022/11/27 06:22:11;;;;;;;15.63;7.97;;;;;;;;;;5092535;28;20028;-57
2022/11/27 06:24:36;;;;;;;20.40;8.20;;;;;;;;;;5076610;28;20040;-57
2022/11/27 06:27:01;;;;;;;17.27;7.72;;;;;;;;;;5081588;28;20028;-57
2022/11/27 06:29:27;;;;;;;14.95;8.00;;;;;;;;;;5087402;28;20032;-57
2022/11/27 06:31:52;;;;;;;20.67;9.45;;;;;;;;;;5076336;28;20027;-57
2022/11/27 06:34:17;;;;;;;17.77;8.23;;;;;;;;;;5085551;28;20040;-56
2022/11/27 06:36:42;;;;;;;16.70;8.20;;;;;;;;;;5082053;28;20024;-57
2022/11/27 06:39:08;;;;;;;15.20;7.85;;;;;;;;;;5077527;28;20052;-56
2022/11/27 06:41:34;;;;;;;22.13;9.50;;;;;;;;;;5111120;27;20028;-56
2022/11/27 06:43:59;;;;;;;21.17;9.43;;;;;;;;;;5092751;28;20028;-57
2022/11/27 06:46:24;;;;;;;18.17;8.80;;;;;;;;;;5104053;27;20429;-57
2022/11/27 06:48:50;;;;;;;15.30;7.97;;;;;;;;;;5076819;28;20127;-57
2022/11/27 06:51:16;;;;;;;16.95;8.15;;;;;;;;;;5082948;28;20059;-57
2022/11/27 06:53:41;;;;;;;16.60;8.57;;;;;;;;;;5076849;28;20024;-57
2022/11/27 06:56:07;;;;;;;14.05;7.95;;;;;;;;;;5076362;28;20162;-57
2022/11/27 06:58:33;;;;;;;17.25;8.13;;;;;;;;;;5081585;28;20082;-57
2022/11/27 07:00:58;;;;;;;19.35;7.70;;;;;;;;;;5079082;28;20024;-57
2022/11/27 07:03:24;;;;;;;15.40;7.60;;;;;;;;;;5080578;28;20114;-57
2022/11/27 07:05:49;;;;;;;13.15;7.57;;;;;;;;;;5085928;28;20024;-57
2022/11/27 07:08:14;;;;;;;13.30;7.18;;;;;;;;;;5073210;28;20411;-57
2022/11/27 07:10:39;;;;;;;14.50;7.88;;;;;;;;;;5075511;28;20436;-57
2022/11/27 07:13:05;;;;;;;14.15;7.07;;;;;;;;;;5090572;28;20031;-57
2022/11/27 07:15:30;;;;;;;17.45;8.05;;;;;;;;;;5087314;28;20017;-57
2022/11/27 07:17:56;;;;;;;16.15;7.65;;;;;;;;;;5072861;28;20017;-56
2022/11/27 07:20:21;;;;;;;25.40;8.55;;;;;;;;;;5076282;28;20081;-57
2022/11/27 07:22:46;;;;;;;17.55;8.43;;;;;;;;;;5080205;28;20056;-57
2022/11/27 07:25:11;;;;;;;16.63;9.18;;;;;;;;;;5080908;28;20061;-57
2022/11/27 07:27:37;;;;;;;13.55;7.18;;;;;;;;;;5092408;28;20072;-56
2022/11/27 07:30:02;;;;;;;13.63;7.95;;;;;;;;;;5084855;28;20050;-57
2022/11/27 07:32:27;;;;;;;17.10;8.77;;;;;;;;;;5076581;28;20375;-57
2022/11/27 07:34:52;;;;;;;18.42;9.18;;;;;;;;;;5080310;28;20063;-56
2022/11/27 07:37:18;;;;;;;13.25;7.65;;;;;;;;;;5076807;28;20085;-57
2022/11/27 07:39:46;;;;;;;19.98;10.45;;;;;;;;;;5086323;28;20612;-58
2022/11/27 07:42:11;;;;;;;17.83;10.07;;;;;;;;;;5082807;28;20099;-58
2022/11/27 07:44:37;;;;;;;18.90;9.75;;;;;;;;;;5080604;28;20304;-56
2022/11/27 07:47:02;;;;;;;14.48;8.73;;;;;;;;;;5083788;28;20107;-59
2022/11/27 07:49:27;;;;;;;16.40;9.60;;;;;;;;;;5078859;28;20181;-59
2022/11/27 07:51:52;;;;;;;18.33;10.52;;;;;;;;;;5079348;28;20060;-57
2022/11/27 07:54:17;;;;;;;17.92;9.15;;;;;;;;;;5080207;28;20078;-57
2022/11/27 07:56:43;;;;;;;20.40;10.07;;;;;;;;;;5120886;27;20027;-57
2022/11/27 07:59:08;;;;;;;16.35;10.43;;;;;;;;;;5080097;28;20036;-57
2022/11/27 08:01:33;;;;;;;19.95;10.05;;;;;;;;;;5082603;28;20035;-57
2022/11/27 08:04:01;;;;;;;23.30;11.40;;;;;;;;;;5071009;28;20499;-56
2022/11/27 08:06:27;;;;;;;25.70;15.25;;;;;;;;;;5080255;28;20020;-56
2022/11/27 08:08:54;;;;;;;34.08;15.40;;;;;;;;;;5074804;28;20058;-57
2022/11/27 08:11:21;;;;;;;21.42;13.27;;;;;;;;;;5079515;28;20032;-56
2022/11/27 08:13:47;;;;;;;21.83;11.00;;;;;;;;;;5080648;28;20489;-57
2022/11/27 08:16:13;;;;;;;25.17;11.50;;;;;;;;;;5075226;28;20025;-57
2022/11/27 08:18:38;;;;;;;17.67;9.85;;;;;;;;;;5077723;28;20027;-56
2022/11/27 08:21:03;;;;;;;24.35;11.65;;;;;;;;;;5080397;28;20044;-57
2022/11/27 08:23:28;;;;;;;21.77;12.75;;;;;;;;;;5072150;28;20080;-57
2022/11/27 08:25:54;;;;;;;24.13;15.45;;;;;;;;;;5082216;28;20012;-57
2022/11/27 08:28:19;;;;;;;23.50;12.93;;;;;;;;;;5074160;28;20028;-56
2022/11/27 08:30:44;;;;;;;26.77;16.25;;;;;;;;;;5079549;28;20035;-57
2022/11/27 08:33:11;;;;;;;24.83;13.85;;;;;;;;;;5077550;28;20028;-57
2022/11/27 08:35:36;;;;;;;25.80;15.13;;;;;;;;;;5085388;28;20035;-57
2022/11/27 08:38:01;;;;;;;23.48;14.90;;;;;;;;;;5074225;28;20024;-57
2022/11/27 08:40:26;;;;;;;19.42;12.13;;;;;;;;;;5070104;28;20024;-57
2022/11/27 08:42:52;;;;;;;27.40;15.85;;;;;;;;;;5081764;28;20027;-56
2022/11/27 08:45:17;;;;;;;21.05;13.88;;;;;;;;;;5105934;27;20032;-57
2022/11/27 08:47:42;;;;;;;18.95;12.77;;;;;;;;;;5078328;28;20114;-57
2022/11/27 08:50:08;;;;;;;19.05;11.63;;;;;;;;;;5079274;28;20493;-57
2022/11/27 08:52:33;;;;;;;25.42;12.32;;;;;;;;;;5081263;28;20023;-56
2022/11/27 08:54:58;;;;;;;20.13;11.88;;;;;;;;;;5081227;28;20366;-57
2022/11/27 08:57:24;;;;;;;21.58;11.70;;;;;;;;;;5076432;28;20580;-57
2022/11/27 08:59:49;;;;;;;21.52;12.45;;;;;;;;;;5077303;28;20089;-57
2022/11/27 09:02:14;;;;;;;23.30;13.95;;;;;;;;;;5077800;28;20167;-58
2022/11/27 09:04:39;;;;;;;23.80;12.32;;;;;;;;;;5076993;28;20257;-57
2022/11/27 09:07:05;;;;;;;18.90;11.95;;;;;;;;;;5078682;28;20039;-57
2022/11/27 09:09:30;;;;;;;23.48;13.13;;;;;;;;;;5072775;28;20413;-57
2022/11/27 09:11:55;;;;;;;25.80;16.17;;;;;;;;;;5077730;28;20427;-57
2022/11/27 09:14:20;;;;;;;18.48;10.73;;;;;;;;;;5081803;28;20114;-57
2022/11/27 09:16:45;;;;;;;17.30;10.65;;;;;;;;;;5083746;28;20106;-57
2022/11/27 09:19:11;;;;;;;16.13;9.32;;;;;;;;;;5086647;28;20095;-57
2022/11/27 09:21:37;;;;;;;23.50;11.68;;;;;;;;;;5076536;28;20029;-57
2022/11/27 09:24:03;;;;;;;13.27;8.95;;;;;;;;;;5074149;28;20047;-57
2022/11/27 09:26:28;;;;;;;14.45;8.40;;;;;;;;;;5072258;28;20024;-57
2022/11/27 09:28:53;;;;;;;20.58;11.70;;;;;;;;;;5074256;28;20131;-57
2022/11/27 09:31:19;;;;;;;23.77;13.27;;;;;;;;;;5083217;28;20031;-57
2022/11/27 09:33:44;;;;;;;16.95;10.75;;;;;;;;;;5074781;28;20024;-57
2022/11/27 09:36:16;;;;;;;19.10;10.90;;;;;;;;;;5077605;28;20421;-56
2022/11/27 09:38:42;;;;;;;19.30;10.43;;;;;;;;;;5076575;28;20019;-57
2022/11/27 09:41:13;;;;;;;41.05;19.55;;;;;;;;;;5075894;28;20028;-57
2022/11/27 09:43:43;;;;;;;34.67;18.92;;;;;;;;;;5090371;28;20724;-57
2022/11/27 09:46:10;;;;;;;35.35;17.83;;;;;;;;;;5075048;28;20044;-57
2022/11/27 09:48:38;;;;;;;26.02;13.70;;;;;;;;;;5084252;28;20118;-57
2022/11/27 09:51:05;;;;;;;16.98;10.27;;;;;;;;;;5076933;28;20493;-57
2022/11/27 09:53:31;;;;;;;17.83;9.30;;;;;;;;;;5079467;28;20060;-57
2022/11/27 09:55:57;;;;;;;15.40;7.47;;;;;;;;;;5076552;28;20028;-57
2022/11/27 09:58:32;;;;;;;13.68;7.03;;;;;;;;;;5108107;27;20104;-57
2022/11/27 10:00:57;;;;;;;17.48;8.00;;;;;;;;;;5070487;28;20374;-57
2022/11/27 10:03:23;;;;;;;14.48;8.48;;;;;;;;;;5078875;28;20049;-57
2022/11/27 10:05:59;;;;;;;22.73;10.18;;;;;;;;;;5082902;28;20016;-57
2022/11/27 10:08:27;;;;;;;24.50;11.27;;;;;;;;;;5067425;28;20044;-57
2022/11/27 10:10:55;;;;;;;19.23;11.50;;;;;;;;;;5071147;28;20131;-56
2022/11/27 10:13:39;;;;;;;17.20;7.63;;;;;;;;;;5076295;28;20020;-57
2022/11/27 10:16:31;;;;;;;13.70;6.32;;;;;;;;;;5077704;28;20035;-57
2022/11/27 10:18:58;;;;;;;9.65;5.38;;;;;;;;;;5073949;28;20119;-57
2022/11/27 10:21:31;;;;;;;11.95;5.97;;;;;;;;;;5074101;28;20093;-56
2022/11/27 10:23:59;;;;;;;10.32;6.80;;;;;;;;;;5075484;28;20028;-57
2022/11/27 10:26:29;;;;;;;12.55;6.43;;;;;;;;;;5073732;28;20078;-56
2022/11/27 10:29:03;;;;;;;12.10;5.95;;;;;;;;;;5093990;27;20108;-56
2022/11/27 10:31:29;;;;;;;18.48;6.50;;;;;;;;;;5068408;28;20085;-57
2022/11/27 10:33:55;;;;;;;28.50;15.48;;;;;;;;;;5069781;28;20219;-55
2022/11/27 10:36:28;;;;;;;12.85;6.38;;;;;;;;;;5073554;28;20397;-56
2022/11/27 10:38:54;;;;;;;12.07;5.78;;;;;;;;;;5083283;28;20046;-58
2022/11/27 10:41:30;;;;;;;9.82;5.95;;;;;;;;;;5071991;28;20483;-56
2022/11/27 10:43:55;;;;;;;10.63;4.95;;;;;;;;;;5056201;28;20111;-56
2022/11/27 10:46:26;;;;;;;12.88;6.32;;;;;;;;;;5110220;27;20095;-58
2022/11/27 10:48:51;;;;;;;17.73;6.35;;;;;;;;;;5076498;28;20394;-56
2022/11/27 10:51:19;;;;;;;16.33;6.43;;;;;;;;;;5085930;28;20020;-56
2022/11/27 10:53:46;;;;;;;12.70;5.88;;;;;;;;;;5074188;28;20032;-55
2022/11/27 10:56:11;;;;;;;10.85;5.95;;;;;;;;;;5074614;28;20024;-56
2022/11/27 10:58:55;;;;;;;11.77;6.53;;;;;;;;;;5076937;28;20327;-56
2022/11/27 11:01:20;;;;;;;9.30;5.32;;;;;;;;;;5078928;28;20020;-57
2022/11/27 11:03:46;;;;;;;11.02;6.28;;;;;;;;;;5076416;28;20259;-56
2022/11/27 11:06:17;;;;;;;18.08;10.30;;;;;;;;;;5080150;28;20032;-56
2022/11/27 11:08:42;;;;;;;11.07;5.40;;;;;;;;;;5075686;28;20063;-56
2022/11/27 11:11:07;;;;;;;9.02;4.72;;;;;;;;;;5066034;28;20435;-56
2022/11/27 11:13:42;;;;;;;9.35;5.07;;;;;;;;;;5078238;28;20375;-55
2022/11/27 11:16:10;;;;;;;11.02;5.05;;;;;;;;;;5083916;28;20023;-56
2022/11/27 11:18:42;;;;;;;11.70;5.65;;;;;;;;;;5079599;28;20602;-56
2022/11/27 11:21:22;;;;;;;7.70;4.40;;;;;;;;;;5075704;28;20111;-56
2022/11/27 11:23:48;;;;;;;;;;;;;;;;;;5076233;28;20023;-56
2022/11/27 11:26:22;;;;;;;12.20;6.93;;;;;;;;;;5079375;28;19908;-56
2022/11/27 11:28:48;;;;;;;11.75;5.00;;;;;;;;;;5073827;28;20107;-59
2022/11/27 11:31:15;;;;;;;8.55;4.72;;;;;;;;;;5080179;28;20032;-56
2022/11/27 11:33:51;;;;;;;11.00;5.03;;;;;;;;;;5072406;28;20064;-56
2022/11/27 11:36:16;;;;;;;12.70;5.68;;;;;;;;;;5077671;28;20036;-57
2022/11/27 11:38:42;;;;;;;12.65;6.80;;;;;;;;;;5083795;28;20015;-57
2022/11/27 11:41:08;;;;;;;10.20;5.28;;;;;;;;;;5109056;27;20560;-58
2022/11/27 11:43:35;;;;;;;19.08;10.65;;;;;;;;;;5117176;27;20028;-57
2022/11/27 11:46:07;;;;;;;20.27;12.07;;;;;;;;;;5072594;28;20027;-56
2022/11/27 11:48:32;;;;;;;12.68;6.30;;;;;;;;;;5078202;28;20032;-56
2022/11/27 11:51:30;;;;;;;9.63;5.18;;;;;;;;;;5083099;28;20059;-56
2022/11/27 11:54:06;;;;;;;34.28;18.08;;;;;;;;;;5050206;28;20035;-56
2022/11/27 11:56:38;;;;;;;7.82;4.97;;;;;;;;;;5114183;27;20031;-57
2022/11/27 11:59:04;;;;;;;13.80;5.53;;;;;;;;;;5079723;28;20028;-56
2022/11/27 12:01:42;;;;;;;11.48;5.82;;;;;;;;;;5077768;28;20070;-57
2022/11/27 12:04:16;;;;;;;9.43;4.97;;;;;;;;;;5082616;28;20032;-56
2022/11/27 12:06:41;;;;;;;9.55;5.70;;;;;;;;;;5078010;28;20024;-55
2022/11/27 12:09:15;;;;;;;7.28;4.65;;;;;;;;;;5080925;28;20436;-55
2022/11/27 12:11:43;;;;;;;12.70;7.63;;;;;;;;;;5070598;28;20031;-57
2022/11/27 12:14:10;;;;;;;13.13;6.18;;;;;;;;;;5071890;28;20368;-59
2022/11/27 12:16:38;;;;;;;12.20;6.68;;;;;;;;;;5077582;28;20036;-58
2022/11/27 12:19:03;;;;;;;10.57;4.70;;;;;;;;;;5072714;28;20028;-57
2022/11/27 12:21:34;;;;;;;10.50;5.65;;;;;;;;;;5078348;28;20047;-57
2022/11/27 12:23:59;;;;;;;;;;;;;;;;;;5074600;28;20021;-57
2022/11/27 12:26:24;;;;;;;8.57;4.67;;;;;;;;;;5073526;28;19912;-58
2022/11/27 12:29:13;;;;;;;11.70;6.43;;;;;;;;;;5073586;28;20270;-57
2022/11/27 12:31:45;;;;;;;12.00;6.53;;;;;;;;;;5091425;28;20047;-57
2022/11/27 12:34:13;;;;;;;14.45;7.75;;;;;;;;;;5079257;28;20023;-58
2022/11/27 12:36:51;;;;;;;19.65;9.02;;;;;;;;;;5074003;28;20024;-58
2022/11/27 12:39:28;;;;;;;11.52;6.88;;;;;;;;;;5077619;28;20119;-57
2022/11/27 12:42:13;;;;;;;9.20;4.90;;;;;;;;;;5066466;28;20030;-56
2022/11/27 12:44:46;;;;;;;10.50;5.90;;;;;;;;;;5069247;28;20358;-57
2022/11/27 12:47:39;;;;;;;10.73;5.43;;;;;;;;;;5103572;27;20025;-55
2022/11/27 12:50:08;;;;;;;11.38;5.93;;;;;;;;;;5073105;28;20127;-56
2022/11/27 12:52:37;;;;;;;9.55;6.40;;;;;;;;;;5074627;28;20217;-56
2022/11/27 12:55:20;;;;;;;11.93;5.47;;;;;;;;;;5067636;28;20451;-56
2022/11/27 12:57:53;;;;;;;9.73;5.10;;;;;;;;;;5108890;27;20185;-58
2022/11/27 13:00:22;;;;;;;8.35;4.75;;;;;;;;;;5081587;28;20016;-56
2022/11/27 13:02:50;;;;;;;11.45;5.63;;;;;;;;;;5083971;28;20027;-57
2022/11/27 13:05:21;;;;;;;8.07;5.70;;;;;;;;;;5079654;28;20024;-58
2022/11/27 13:07:54;;;;;;;12.65;5.85;;;;;;;;;;5073839;28;20131;-57
2022/11/27 13:10:38;;;;;;;8.60;4.97;;;;;;;;;;5069951;28;20036;-56
2022/11/27 13:13:05;;;;;;;8.85;5.80;;;;;;;;;;5069155;28;20029;-57
2022/11/27 13:15:33;;;;;;;11.57;5.15;;;;;;;;;;5110301;27;20111;-57
2022/11/27 13:18:27;;;;;;;10.73;5.13;;;;;;;;;;5081905;28;20047;-57
2022/11/27 13:20:52;;;;;;;10.23;5.03;;;;;;;;;;5095194;27;20375;-58
2022/11/27 13:23:18;;;;;;;11.48;6.57;;;;;;;;;;5112993;27;20069;-58
2022/11/27 13:25:44;;;;;;;9.98;5.90;;;;;;;;;;5073658;28;20031;-57
2022/11/27 13:28:28;;;;;;;13.07;7.35;;;;;;;;;;5088602;28;20385;-57
2022/11/27 13:30:53;;;;;;;11.02;6.63;;;;;;;;;;5073554;28;20353;-57
2022/11/27 13:33:34;;;;;;;13.20;6.80;;;;;;;;;;5115141;27;21275;-58
2022/11/27 13:35:59;;;;;;;12.77;7.22;;;;;;;;;;5075078;28;20107;-57
2022/11/27 13:38:25;;;;;;;13.48;7.45;;;;;;;;;;5081837;28;20066;-57
2022/11/27 13:40:51;;;;;;;12.45;7.93;;;;;;;;;;5083896;28;20020;-57
2022/11/27 13:43:23;;;;;;;16.05;9.38;;;;;;;;;;5113442;27;20102;-57
2022/11/27 13:45:48;;;;;;;12.25;7.57;;;;;;;;;;5075557;28;20019;-57
2022/11/27 13:48:28;;;;;;;16.30;9.70;;;;;;;;;;5086192;28;20035;-57
2022/11/27 13:50:53;;;;;;;9.93;6.60;;;;;;;;;;5071842;28;20185;-57
2022/11/27 13:53:19;;;;;;;10.18;7.25;;;;;;;;;;5082210;28;20120;-57
2022/11/27 13:55:51;;;;;;;13.77;7.72;;;;;;;;;;5074502;28;20224;-57
2022/11/27 13:58:26;;;;;;;15.35;8.00;;;;;;;;;;5072333;28;20341;-56
2022/11/27 14:00:51;;;;;;;11.27;7.47;;;;;;;;;;5078234;28;20020;-57
2022/11/27 14:03:21;;;;;;;15.60;7.28;;;;;;;;;;5074255;28;20031;-57
2022/11/27 14:05:46;;;;;;;15.82;9.93;;;;;;;;;;5077594;28;20026;-57
2022/11/27 14:08:15;;;;;;;10.55;6.82;;;;;;;;;;5119962;27;20035;-57
2022/11/27 14:10:46;;;;;;;12.20;8.70;;;;;;;;;;5082381;28;20591;-57
2022/11/27 14:13:12;;;;;;;9.10;6.75;;;;;;;;;;5081685;28;20031;-57
2022/11/27 14:15:37;;;;;;;12.80;7.97;;;;;;;;;;5079086;28;20032;-57
2022/11/27 14:18:08;;;;;;;15.07;8.23;;;;;;;;;;5072702;28;20108;-56
2022/11/27 14:20:34;;;;;;;12.63;7.35;;;;;;;;;;5088441;28;20025;-57
2022/11/27 14:22:59;;;;;;;14.00;7.45;;;;;;;;;;5080752;27;20096;-57
2022/11/27 14:25:29;;;;;;;13.93;7.93;;;;;;;;;;5080503;28;20032;-56
2022/11/27 14:27:58;;;;;;;11.77;6.95;;;;;;;;;;5084242;28;20061;-57
2022/11/27 14:30:23;;;;;;;10.00;7.40;;;;;;;;;;5067387;28;20093;-57